sensor_id;sensor_type;location;lat;lon;timestamp;P1;durP1;ratioP1;P2;durP2;ratioP2
21084;SDS011;72320;50.082;20.000;2024-01-27T00:00:43;1.80;;;1.70;;
21084;SDS011;72320;50.082;20.000;2024-01-27T00:03:08;1.90;;;1.70;;
21084;SDS011;72320;50.082;20.000;2024-01-27T00:05:34;1.80;;;1.70;;
21084;SDS011;72320;50.082;20.000;2024-01-27T00:07:59;1.60;;;1.50;;
21084;SDS011;72320;50.082;20.000;2024-01-27T00:10:25;2.10;;;2.00;;
21084;SDS011;72320;50.082;20.000;2024-01-27T00:12:50;2.10;;;1.40;;
21084;SDS011;72320;50.082;20.000;2024-01-27T00:15:15;2.00;;;1.60;;
21084;SDS011;72320;50.082;20.000;2024-01-27T00:17:41;1.70;;;1.60;;
21084;SDS011;72320;50.082;20.000;2024-01-27T00:20:06;2.00;;;1.70;;
21084;SDS011;72320;50.082;20.000;2024-01-27T00:22:32;1.50;;;1.40;;
21084;SDS011;72320;50.082;20.000;2024-01-27T00:24:57;1.70;;;1.60;;
21084;SDS011;72320;50.082;20.000;2024-01-27T00:27:22;1.70;;;1.60;;
21084;SDS011;72320;50.082;20.000;2024-01-27T00:29:48;1.40;;;1.30;;
21084;SDS011;72320;50.082;20.000;2024-01-27T00:32:13;1.60;;;1.50;;
21084;SDS011;72320;50.082;20.000;2024-01-27T00:34:39;2.60;;;1.80;;
21084;SDS011;72320;50.082;20.000;2024-01-27T00:37:04;2.50;;;1.70;;
21084;SDS011;72320;50.082;20.000;2024-01-27T00:39:31;1.60;;;1.50;;
21084;SDS011;72320;50.082;20.000;2024-01-27T00:41:57;1.70;;;1.60;;
21084;SDS011;72320;50.082;20.000;2024-01-27T00:44:23;3.70;;;2.30;;
21084;SDS011;72320;50.082;20.000;2024-01-27T00:46:49;2.00;;;1.90;;
21084;SDS011;72320;50.082;20.000;2024-01-27T00:49:14;1.70;;;1.60;;
21084;SDS011;72320;50.082;20.000;2024-01-27T00:51:39;1.90;;;1.60;;
21084;SDS011;72320;50.082;20.000;2024-01-27T00:54:05;1.50;;;1.40;;
21084;SDS011;72320;50.082;20.000;2024-01-27T00:56:30;5.80;;;1.60;;
21084;SDS011;72320;50.082;20.000;2024-01-27T00:58:55;3.50;;;2.10;;
21084;SDS011;72320;50.082;20.000;2024-01-27T01:01:21;2.30;;;1.90;;
21084;SDS011;72320;50.082;20.000;2024-01-27T01:03:46;2.10;;;1.70;;
21084;SDS011;72320;50.082;20.000;2024-01-27T01:06:11;1.50;;;1.40;;
21084;SDS011;72320;50.082;20.000;2024-01-27T01:08:37;1.70;;;1.60;;
21084;SDS011;72320;50.082;20.000;2024-01-27T01:11:02;2.90;;;1.40;;
21084;SDS011;72320;50.082;20.000;2024-01-27T01:13:28;1.50;;;1.40;;
21084;SDS011;72320;50.082;20.000;2024-01-27T01:15:53;2.20;;;1.60;;
21084;SDS011;72320;50.082;20.000;2024-01-27T01:18:18;2.40;;;2.20;;
21084;SDS011;72320;50.082;20.000;2024-01-27T01:20:44;1.50;;;1.50;;
21084;SDS011;72320;50.082;20.000;2024-01-27T01:23:09;1.60;;;1.50;;
21084;SDS011;72320;50.082;20.000;2024-01-27T01:25:35;2.80;;;1.80;;
21084;SDS011;72320;50.082;20.000;2024-01-27T01:28:00;1.70;;;1.60;;
21084;SDS011;72320;50.082;20.000;2024-01-27T01:30:26;1.90;;;1.70;;
21084;SDS011;72320;50.082;20.000;2024-01-27T01:32:51;2.30;;;2.20;;
21084;SDS011;72320;50.082;20.000;2024-01-27T01:35:17;3.90;;;1.80;;
21084;SDS011;72320;50.082;20.000;2024-01-27T01:37:42;2.40;;;1.90;;
21084;SDS011;72320;50.082;20.000;2024-01-27T01:40:07;2.10;;;1.80;;
21084;SDS011;72320;50.082;20.000;2024-01-27T01:42:33;2.70;;;2.00;;
21084;SDS011;72320;50.082;20.000;2024-01-27T01:44:59;2.50;;;1.70;;
21084;SDS011;72320;50.082;20.000;2024-01-27T01:47:24;2.90;;;1.80;;
21084;SDS011;72320;50.082;20.000;2024-01-27T01:49:50;2.20;;;2.00;;
21084;SDS011;72320;50.082;20.000;2024-01-27T01:52:15;1.80;;;1.70;;
21084;SDS011;72320;50.082;20.000;2024-01-27T01:54:48;1.70;;;1.60;;
21084;SDS011;72320;50.082;20.000;2024-01-27T01:57:14;5.60;;;1.80;;
21084;SDS011;72320;50.082;20.000;2024-01-27T01:59:40;1.60;;;1.50;;
21084;SDS011;72320;50.082;20.000;2024-01-27T02:02:07;9.10;;;1.80;;
21084;SDS011;72320;50.082;20.000;2024-01-27T02:04:40;3.60;;;1.60;;
21084;SDS011;72320;50.082;20.000;2024-01-27T02:07:06;1.80;;;1.60;;
21084;SDS011;72320;50.082;20.000;2024-01-27T02:09:31;5.00;;;2.80;;
21084;SDS011;72320;50.082;20.000;2024-01-27T02:11:57;1.40;;;1.30;;
21084;SDS011;72320;50.082;20.000;2024-01-27T02:14:22;4.10;;;1.90;;
21084;SDS011;72320;50.082;20.000;2024-01-27T02:16:50;3.20;;;1.70;;
21084;SDS011;72320;50.082;20.000;2024-01-27T02:19:15;1.80;;;1.70;;
21084;SDS011;72320;50.082;20.000;2024-01-27T02:21:41;3.10;;;1.90;;
21084;SDS011;72320;50.082;20.000;2024-01-27T02:24:09;2.00;;;1.80;;
21084;SDS011;72320;50.082;20.000;2024-01-27T02:26:35;6.60;;;1.90;;
21084;SDS011;72320;50.082;20.000;2024-01-27T02:29:00;2.60;;;2.00;;
21084;SDS011;72320;50.082;20.000;2024-01-27T02:31:26;2.00;;;1.80;;
21084;SDS011;72320;50.082;20.000;2024-01-27T02:33:51;2.30;;;2.10;;
21084;SDS011;72320;50.082;20.000;2024-01-27T02:36:17;1.60;;;1.50;;
21084;SDS011;72320;50.082;20.000;2024-01-27T02:38:42;9.10;;;1.80;;
21084;SDS011;72320;50.082;20.000;2024-01-27T02:41:09;1.80;;;1.70;;
21084;SDS011;72320;50.082;20.000;2024-01-27T02:43:36;2.70;;;1.70;;
21084;SDS011;72320;50.082;20.000;2024-01-27T02:46:01;1.80;;;1.50;;
21084;SDS011;72320;50.082;20.000;2024-01-27T02:48:27;3.50;;;1.80;;
21084;SDS011;72320;50.082;20.000;2024-01-27T02:50:52;3.20;;;1.70;;
21084;SDS011;72320;50.082;20.000;2024-01-27T02:53:17;1.70;;;1.60;;
21084;SDS011;72320;50.082;20.000;2024-01-27T02:55:43;1.90;;;1.80;;
21084;SDS011;72320;50.082;20.000;2024-01-27T02:58:08;1.70;;;1.50;;
21084;SDS011;72320;50.082;20.000;2024-01-27T03:00:34;5.10;;;1.90;;
21084;SDS011;72320;50.082;20.000;2024-01-27T03:02:59;2.30;;;1.80;;
21084;SDS011;72320;50.082;20.000;2024-01-27T03:05:24;2.50;;;1.70;;
21084;SDS011;72320;50.082;20.000;2024-01-27T03:07:50;3.90;;;1.40;;
21084;SDS011;72320;50.082;20.000;2024-01-27T03:10:15;2.70;;;1.60;;
21084;SDS011;72320;50.082;20.000;2024-01-27T03:12:41;2.10;;;1.60;;
21084;SDS011;72320;50.082;20.000;2024-01-27T03:15:06;1.60;;;1.50;;
21084;SDS011;72320;50.082;20.000;2024-01-27T03:17:31;3.80;;;1.80;;
21084;SDS011;72320;50.082;20.000;2024-01-27T03:19:57;1.30;;;1.30;;
21084;SDS011;72320;50.082;20.000;2024-01-27T03:22:22;2.10;;;1.80;;
21084;SDS011;72320;50.082;20.000;2024-01-27T03:24:47;3.90;;;1.60;;
21084;SDS011;72320;50.082;20.000;2024-01-27T03:27:13;3.20;;;1.20;;
21084;SDS011;72320;50.082;20.000;2024-01-27T03:29:38;1.80;;;1.70;;
21084;SDS011;72320;50.082;20.000;2024-01-27T03:32:04;3.10;;;1.70;;
21084;SDS011;72320;50.082;20.000;2024-01-27T03:34:29;3.30;;;1.40;;
21084;SDS011;72320;50.082;20.000;2024-01-27T03:36:54;1.40;;;1.30;;
21084;SDS011;72320;50.082;20.000;2024-01-27T03:39:20;2.30;;;1.70;;
21084;SDS011;72320;50.082;20.000;2024-01-27T03:41:45;5.30;;;2.30;;
21084;SDS011;72320;50.082;20.000;2024-01-27T03:44:11;2.60;;;1.90;;
21084;SDS011;72320;50.082;20.000;2024-01-27T03:46:36;1.50;;;1.40;;
21084;SDS011;72320;50.082;20.000;2024-01-27T03:49:04;2.30;;;1.50;;
21084;SDS011;72320;50.082;20.000;2024-01-27T03:51:30;6.70;;;2.20;;
21084;SDS011;72320;50.082;20.000;2024-01-27T03:53:55;1.90;;;1.80;;
21084;SDS011;72320;50.082;20.000;2024-01-27T03:56:21;3.90;;;1.70;;
21084;SDS011;72320;50.082;20.000;2024-01-27T03:58:46;3.30;;;2.30;;
21084;SDS011;72320;50.082;20.000;2024-01-27T04:01:11;1.40;;;1.30;;
21084;SDS011;72320;50.082;20.000;2024-01-27T04:03:37;1.60;;;1.50;;
21084;SDS011;72320;50.082;20.000;2024-01-27T04:06:02;3.30;;;1.70;;
21084;SDS011;72320;50.082;20.000;2024-01-27T04:08:31;2.70;;;1.80;;
21084;SDS011;72320;50.082;20.000;2024-01-27T04:10:56;1.80;;;1.70;;
21084;SDS011;72320;50.082;20.000;2024-01-27T04:13:21;2.20;;;1.80;;
21084;SDS011;72320;50.082;20.000;2024-01-27T04:15:47;1.50;;;1.40;;
21084;SDS011;72320;50.082;20.000;2024-01-27T04:18:12;2.00;;;1.80;;
21084;SDS011;72320;50.082;20.000;2024-01-27T04:20:38;6.20;;;1.70;;
21084;SDS011;72320;50.082;20.000;2024-01-27T04:23:03;1.70;;;1.60;;
21084;SDS011;72320;50.082;20.000;2024-01-27T04:25:29;1.50;;;1.40;;
21084;SDS011;72320;50.082;20.000;2024-01-27T04:27:55;2.30;;;1.70;;
21084;SDS011;72320;50.082;20.000;2024-01-27T04:30:20;4.10;;;1.80;;
21084;SDS011;72320;50.082;20.000;2024-01-27T04:32:45;1.60;;;1.40;;
21084;SDS011;72320;50.082;20.000;2024-01-27T04:35:12;2.40;;;1.70;;
21084;SDS011;72320;50.082;20.000;2024-01-27T04:37:37;2.90;;;1.40;;
21084;SDS011;72320;50.082;20.000;2024-01-27T04:40:06;2.30;;;1.40;;
21084;SDS011;72320;50.082;20.000;2024-01-27T04:42:33;2.50;;;1.80;;
21084;SDS011;72320;50.082;20.000;2024-01-27T04:44:59;1.80;;;1.50;;
21084;SDS011;72320;50.082;20.000;2024-01-27T04:47:25;1.80;;;1.50;;
21084;SDS011;72320;50.082;20.000;2024-01-27T04:49:50;2.60;;;1.80;;
21084;SDS011;72320;50.082;20.000;2024-01-27T04:52:16;4.00;;;2.00;;
21084;SDS011;72320;50.082;20.000;2024-01-27T04:54:41;2.50;;;2.00;;
21084;SDS011;72320;50.082;20.000;2024-01-27T04:57:07;6.20;;;2.00;;
21084;SDS011;72320;50.082;20.000;2024-01-27T04:59:32;2.90;;;1.70;;
21084;SDS011;72320;50.082;20.000;2024-01-27T05:01:57;1.80;;;1.70;;
21084;SDS011;72320;50.082;20.000;2024-01-27T05:04:23;2.40;;;2.10;;
21084;SDS011;72320;50.082;20.000;2024-01-27T05:06:51;7.30;;;2.60;;
21084;SDS011;72320;50.082;20.000;2024-01-27T05:09:17;2.90;;;2.40;;
21084;SDS011;72320;50.082;20.000;2024-01-27T05:11:42;1.80;;;1.70;;
21084;SDS011;72320;50.082;20.000;2024-01-27T05:14:10;5.10;;;1.70;;
21084;SDS011;72320;50.082;20.000;2024-01-27T05:16:36;1.80;;;1.60;;
21084;SDS011;72320;50.082;20.000;2024-01-27T05:19:02;2.60;;;2.20;;
21084;SDS011;72320;50.082;20.000;2024-01-27T05:21:27;3.90;;;2.00;;
21084;SDS011;72320;50.082;20.000;2024-01-27T05:23:52;3.70;;;2.10;;
21084;SDS011;72320;50.082;20.000;2024-01-27T05:26:18;2.40;;;1.80;;
21084;SDS011;72320;50.082;20.000;2024-01-27T05:28:43;9.10;;;2.00;;
21084;SDS011;72320;50.082;20.000;2024-01-27T05:31:09;2.50;;;1.90;;
21084;SDS011;72320;50.082;20.000;2024-01-27T05:33:37;1.90;;;1.70;;
21084;SDS011;72320;50.082;20.000;2024-01-27T05:36:04;1.90;;;1.80;;
21084;SDS011;72320;50.082;20.000;2024-01-27T05:38:30;2.00;;;1.80;;
21084;SDS011;72320;50.082;20.000;2024-01-27T05:40:57;7.00;;;1.90;;
21084;SDS011;72320;50.082;20.000;2024-01-27T05:43:23;3.30;;;1.90;;
21084;SDS011;72320;50.082;20.000;2024-01-27T05:45:48;2.30;;;2.20;;
21084;SDS011;72320;50.082;20.000;2024-01-27T05:48:14;1.90;;;1.80;;
21084;SDS011;72320;50.082;20.000;2024-01-27T05:50:41;2.80;;;1.80;;
21084;SDS011;72320;50.082;20.000;2024-01-27T05:53:07;2.10;;;1.60;;
21084;SDS011;72320;50.082;20.000;2024-01-27T05:55:33;2.60;;;2.20;;
21084;SDS011;72320;50.082;20.000;2024-01-27T05:57:59;5.00;;;1.80;;
21084;SDS011;72320;50.082;20.000;2024-01-27T06:00:24;2.80;;;1.70;;
21084;SDS011;72320;50.082;20.000;2024-01-27T06:02:50;5.70;;;2.50;;
21084;SDS011;72320;50.082;20.000;2024-01-27T06:05:15;2.20;;;1.70;;
21084;SDS011;72320;50.082;20.000;2024-01-27T06:07:41;5.70;;;1.80;;
21084;SDS011;72320;50.082;20.000;2024-01-27T06:10:08;4.90;;;2.20;;
21084;SDS011;72320;50.082;20.000;2024-01-27T06:12:33;1.90;;;1.70;;
21084;SDS011;72320;50.082;20.000;2024-01-27T06:14:59;3.50;;;2.10;;
21084;SDS011;72320;50.082;20.000;2024-01-27T06:17:25;3.70;;;2.00;;
21084;SDS011;72320;50.082;20.000;2024-01-27T06:19:50;3.00;;;1.90;;
21084;SDS011;72320;50.082;20.000;2024-01-27T06:22:16;4.50;;;2.40;;
21084;SDS011;72320;50.082;20.000;2024-01-27T06:24:42;5.60;;;1.80;;
21084;SDS011;72320;50.082;20.000;2024-01-27T06:27:10;2.40;;;2.00;;
21084;SDS011;72320;50.082;20.000;2024-01-27T06:29:36;2.20;;;1.80;;
21084;SDS011;72320;50.082;20.000;2024-01-27T06:32:02;2.60;;;2.00;;
21084;SDS011;72320;50.082;20.000;2024-01-27T06:34:28;2.90;;;2.00;;
21084;SDS011;72320;50.082;20.000;2024-01-27T06:36:53;4.50;;;1.90;;
21084;SDS011;72320;50.082;20.000;2024-01-27T06:39:19;4.80;;;2.10;;
21084;SDS011;72320;50.082;20.000;2024-01-27T06:41:46;2.90;;;2.00;;
21084;SDS011;72320;50.082;20.000;2024-01-27T06:44:12;3.10;;;2.10;;
21084;SDS011;72320;50.082;20.000;2024-01-27T06:46:38;2.40;;;2.20;;
21084;SDS011;72320;50.082;20.000;2024-01-27T06:49:03;3.60;;;2.10;;
21084;SDS011;72320;50.082;20.000;2024-01-27T06:51:28;2.50;;;2.00;;
21084;SDS011;72320;50.082;20.000;2024-01-27T06:53:54;4.40;;;2.20;;
21084;SDS011;72320;50.082;20.000;2024-01-27T06:56:19;1.70;;;1.50;;
21084;SDS011;72320;50.082;20.000;2024-01-27T06:58:44;4.30;;;1.80;;
21084;SDS011;72320;50.082;20.000;2024-01-27T07:01:10;1.70;;;1.60;;
21084;SDS011;72320;50.082;20.000;2024-01-27T07:03:35;4.60;;;1.90;;
21084;SDS011;72320;50.082;20.000;2024-01-27T07:06:01;4.90;;;1.90;;
21084;SDS011;72320;50.082;20.000;2024-01-27T07:08:26;3.40;;;1.70;;
21084;SDS011;72320;50.082;20.000;2024-01-27T07:10:52;2.50;;;1.70;;
21084;SDS011;72320;50.082;20.000;2024-01-27T07:13:17;5.30;;;2.00;;
21084;SDS011;72320;50.082;20.000;2024-01-27T07:15:42;2.60;;;1.60;;
21084;SDS011;72320;50.082;20.000;2024-01-27T07:18:08;4.10;;;2.10;;
21084;SDS011;72320;50.082;20.000;2024-01-27T07:20:34;1.70;;;1.60;;
21084;SDS011;72320;50.082;20.000;2024-01-27T07:23:00;4.90;;;2.00;;
21084;SDS011;72320;50.082;20.000;2024-01-27T07:25:26;3.10;;;1.80;;
21084;SDS011;72320;50.082;20.000;2024-01-27T07:27:53;3.60;;;1.70;;
21084;SDS011;72320;50.082;20.000;2024-01-27T07:30:19;4.60;;;2.10;;
21084;SDS011;72320;50.082;20.000;2024-01-27T07:32:44;5.50;;;2.20;;
21084;SDS011;72320;50.082;20.000;2024-01-27T07:35:10;2.20;;;2.00;;
21084;SDS011;72320;50.082;20.000;2024-01-27T07:37:37;5.60;;;2.30;;
21084;SDS011;72320;50.082;20.000;2024-01-27T07:40:03;4.00;;;2.30;;
21084;SDS011;72320;50.082;20.000;2024-01-27T07:42:30;1.70;;;1.60;;
21084;SDS011;72320;50.082;20.000;2024-01-27T07:44:56;2.00;;;1.80;;
21084;SDS011;72320;50.082;20.000;2024-01-27T07:47:21;8.40;;;2.90;;
21084;SDS011;72320;50.082;20.000;2024-01-27T07:49:46;3.40;;;1.80;;
21084;SDS011;72320;50.082;20.000;2024-01-27T07:52:14;2.20;;;2.00;;
21084;SDS011;72320;50.082;20.000;2024-01-27T07:54:39;2.90;;;1.60;;
21084;SDS011;72320;50.082;20.000;2024-01-27T07:57:05;3.20;;;1.90;;
21084;SDS011;72320;50.082;20.000;2024-01-27T07:59:31;4.30;;;2.00;;
21084;SDS011;72320;50.082;20.000;2024-01-27T08:01:56;3.10;;;1.80;;
21084;SDS011;72320;50.082;20.000;2024-01-27T08:04:21;2.30;;;2.20;;
21084;SDS011;72320;50.082;20.000;2024-01-27T08:06:48;5.70;;;1.90;;
21084;SDS011;72320;50.082;20.000;2024-01-27T08:09:14;1.80;;;1.50;;
21084;SDS011;72320;50.082;20.000;2024-01-27T08:11:41;1.60;;;1.50;;
21084;SDS011;72320;50.082;20.000;2024-01-27T08:14:06;2.80;;;2.30;;
21084;SDS011;72320;50.082;20.000;2024-01-27T08:16:31;2.20;;;1.90;;
21084;SDS011;72320;50.082;20.000;2024-01-27T08:18:57;5.10;;;2.00;;
21084;SDS011;72320;50.082;20.000;2024-01-27T08:21:22;2.00;;;1.90;;
21084;SDS011;72320;50.082;20.000;2024-01-27T08:23:48;11.00;;;2.30;;
21084;SDS011;72320;50.082;20.000;2024-01-27T08:26:13;5.70;;;1.90;;
21084;SDS011;72320;50.082;20.000;2024-01-27T08:28:39;2.40;;;2.20;;
21084;SDS011;72320;50.082;20.000;2024-01-27T08:31:04;2.90;;;1.80;;
21084;SDS011;72320;50.082;20.000;2024-01-27T08:33:30;3.00;;;2.10;;
21084;SDS011;72320;50.082;20.000;2024-01-27T08:35:56;4.10;;;1.80;;
21084;SDS011;72320;50.082;20.000;2024-01-27T08:38:21;2.10;;;1.90;;
21084;SDS011;72320;50.082;20.000;2024-01-27T08:40:47;3.00;;;2.00;;
21084;SDS011;72320;50.082;20.000;2024-01-27T08:43:12;4.50;;;1.80;;
21084;SDS011;72320;50.082;20.000;2024-01-27T08:45:38;6.10;;;2.20;;
21084;SDS011;72320;50.082;20.000;2024-01-27T08:48:04;3.30;;;1.90;;
21084;SDS011;72320;50.082;20.000;2024-01-27T08:50:29;9.10;;;1.90;;
21084;SDS011;72320;50.082;20.000;2024-01-27T08:52:55;2.10;;;1.90;;
21084;SDS011;72320;50.082;20.000;2024-01-27T08:55:20;2.00;;;1.70;;
21084;SDS011;72320;50.082;20.000;2024-01-27T08:57:48;3.70;;;2.10;;
21084;SDS011;72320;50.082;20.000;2024-01-27T09:00:14;2.50;;;2.10;;
21084;SDS011;72320;50.082;20.000;2024-01-27T09:02:41;3.60;;;1.60;;
21084;SDS011;72320;50.082;20.000;2024-01-27T09:05:07;2.00;;;1.80;;
21084;SDS011;72320;50.082;20.000;2024-01-27T09:07:33;4.70;;;1.70;;
21084;SDS011;72320;50.082;20.000;2024-01-27T09:09:59;2.60;;;1.70;;
21084;SDS011;72320;50.082;20.000;2024-01-27T09:12:24;2.10;;;1.90;;
21084;SDS011;72320;50.082;20.000;2024-01-27T09:14:50;2.00;;;1.80;;
21084;SDS011;72320;50.082;20.000;2024-01-27T09:17:15;1.60;;;1.50;;
21084;SDS011;72320;50.082;20.000;2024-01-27T09:19:40;4.70;;;2.10;;
21084;SDS011;72320;50.082;20.000;2024-01-27T09:22:06;3.80;;;2.10;;
21084;SDS011;72320;50.082;20.000;2024-01-27T09:24:31;2.00;;;1.90;;
21084;SDS011;72320;50.082;20.000;2024-01-27T09:26:57;3.00;;;2.00;;
21084;SDS011;72320;50.082;20.000;2024-01-27T09:29:22;8.20;;;2.20;;
21084;SDS011;72320;50.082;20.000;2024-01-27T09:31:47;3.00;;;2.10;;
21084;SDS011;72320;50.082;20.000;2024-01-27T09:34:13;7.10;;;1.60;;
21084;SDS011;72320;50.082;20.000;2024-01-27T09:36:38;4.30;;;2.00;;
21084;SDS011;72320;50.082;20.000;2024-01-27T09:39:03;2.00;;;1.90;;
21084;SDS011;72320;50.082;20.000;2024-01-27T09:41:30;2.10;;;1.90;;
21084;SDS011;72320;50.082;20.000;2024-01-27T09:44:00;4.90;;;2.50;;
21084;SDS011;72320;50.082;20.000;2024-01-27T09:46:28;3.00;;;2.20;;
21084;SDS011;72320;50.082;20.000;2024-01-27T09:48:54;2.50;;;2.20;;
21084;SDS011;72320;50.082;20.000;2024-01-27T09:51:20;8.50;;;2.90;;
21084;SDS011;72320;50.082;20.000;2024-01-27T09:53:45;2.80;;;2.20;;
21084;SDS011;72320;50.082;20.000;2024-01-27T09:56:15;2.90;;;2.10;;
21084;SDS011;72320;50.082;20.000;2024-01-27T09:58:43;2.90;;;2.30;;
21084;SDS011;72320;50.082;20.000;2024-01-27T10:01:12;4.90;;;2.30;;
21084;SDS011;72320;50.082;20.000;2024-01-27T10:03:40;5.90;;;1.90;;
21084;SDS011;72320;50.082;20.000;2024-01-27T10:06:12;4.90;;;1.60;;
21084;SDS011;72320;50.082;20.000;2024-01-27T10:08:39;4.80;;;1.90;;
21084;SDS011;72320;50.082;20.000;2024-01-27T10:11:08;5.10;;;2.60;;
21084;SDS011;72320;50.082;20.000;2024-01-27T10:13:36;5.00;;;2.70;;
21084;SDS011;72320;50.082;20.000;2024-01-27T10:16:02;4.90;;;1.90;;
21084;SDS011;72320;50.082;20.000;2024-01-27T10:18:28;4.50;;;2.40;;
21084;SDS011;72320;50.082;20.000;2024-01-27T10:20:54;9.30;;;2.50;;
21084;SDS011;72320;50.082;20.000;2024-01-27T10:23:20;2.50;;;2.40;;
21084;SDS011;72320;50.082;20.000;2024-01-27T10:25:45;4.70;;;2.70;;
21084;SDS011;72320;50.082;20.000;2024-01-27T10:28:10;4.50;;;3.10;;
21084;SDS011;72320;50.082;20.000;2024-01-27T10:30:36;5.50;;;2.40;;
21084;SDS011;72320;50.082;20.000;2024-01-27T10:33:02;2.30;;;2.10;;
21084;SDS011;72320;50.082;20.000;2024-01-27T10:35:28;2.20;;;2.00;;
21084;SDS011;72320;50.082;20.000;2024-01-27T10:37:54;8.70;;;3.20;;
21084;SDS011;72320;50.082;20.000;2024-01-27T10:40:20;3.00;;;2.20;;
21084;SDS011;72320;50.082;20.000;2024-01-27T10:42:51;2.50;;;2.30;;
21084;SDS011;72320;50.082;20.000;2024-01-27T10:45:26;2.30;;;2.10;;
21084;SDS011;72320;50.082;20.000;2024-01-27T10:47:52;4.20;;;2.50;;
21084;SDS011;72320;50.082;20.000;2024-01-27T10:50:20;2.70;;;2.50;;
21084;SDS011;72320;50.082;20.000;2024-01-27T10:52:47;6.60;;;2.70;;
21084;SDS011;72320;50.082;20.000;2024-01-27T10:55:13;2.40;;;2.20;;
21084;SDS011;72320;50.082;20.000;2024-01-27T10:57:40;6.50;;;2.90;;
21084;SDS011;72320;50.082;20.000;2024-01-27T11:00:07;2.60;;;2.30;;
21084;SDS011;72320;50.082;20.000;2024-01-27T11:02:34;7.10;;;2.30;;
21084;SDS011;72320;50.082;20.000;2024-01-27T11:05:03;3.90;;;2.70;;
21084;SDS011;72320;50.082;20.000;2024-01-27T11:07:33;3.00;;;2.60;;
21084;SDS011;72320;50.082;20.000;2024-01-27T11:10:00;3.30;;;2.60;;
21084;SDS011;72320;50.082;20.000;2024-01-27T11:12:26;4.50;;;2.40;;
21084;SDS011;72320;50.082;20.000;2024-01-27T11:14:52;3.60;;;2.80;;
21084;SDS011;72320;50.082;20.000;2024-01-27T11:17:18;4.20;;;2.80;;
21084;SDS011;72320;50.082;20.000;2024-01-27T11:19:44;2.70;;;2.20;;
21084;SDS011;72320;50.082;20.000;2024-01-27T11:22:23;5.90;;;3.00;;
21084;SDS011;72320;50.082;20.000;2024-01-27T11:27:36;5.20;;;2.10;;
21084;SDS011;72320;50.082;20.000;2024-01-27T11:30:02;7.40;;;2.40;;
21084;SDS011;72320;50.082;20.000;2024-01-27T11:32:28;3.40;;;2.10;;
21084;SDS011;72320;50.082;20.000;2024-01-27T11:34:54;4.90;;;2.60;;
21084;SDS011;72320;50.082;20.000;2024-01-27T11:37:20;3.50;;;2.70;;
21084;SDS011;72320;50.082;20.000;2024-01-27T11:39:50;4.30;;;2.60;;
21084;SDS011;72320;50.082;20.000;2024-01-27T11:42:16;4.10;;;2.30;;
21084;SDS011;72320;50.082;20.000;2024-01-27T11:44:42;5.10;;;2.70;;
21084;SDS011;72320;50.082;20.000;2024-01-27T11:47:16;4.50;;;2.70;;
21084;SDS011;72320;50.082;20.000;2024-01-27T11:49:43;3.60;;;2.50;;
21084;SDS011;72320;50.082;20.000;2024-01-27T11:52:16;5.30;;;2.70;;
21084;SDS011;72320;50.082;20.000;2024-01-27T11:54:42;6.60;;;3.10;;
21084;SDS011;72320;50.082;20.000;2024-01-27T11:57:08;2.90;;;2.30;;
21084;SDS011;72320;50.082;20.000;2024-01-27T11:59:33;2.60;;;2.40;;
21084;SDS011;72320;50.082;20.000;2024-01-27T12:02:00;7.80;;;3.20;;
21084;SDS011;72320;50.082;20.000;2024-01-27T12:04:27;4.00;;;3.20;;
21084;SDS011;72320;50.082;20.000;2024-01-27T12:06:53;3.70;;;3.30;;
21084;SDS011;72320;50.082;20.000;2024-01-27T12:09:18;4.50;;;2.80;;
21084;SDS011;72320;50.082;20.000;2024-01-27T12:11:44;3.10;;;2.80;;
21084;SDS011;72320;50.082;20.000;2024-01-27T12:14:11;9.90;;;3.20;;
21084;SDS011;72320;50.082;20.000;2024-01-27T12:16:36;3.50;;;2.90;;
21084;SDS011;72320;50.082;20.000;2024-01-27T12:19:02;4.50;;;3.40;;
21084;SDS011;72320;50.082;20.000;2024-01-27T12:21:28;7.50;;;3.30;;
21084;SDS011;72320;50.082;20.000;2024-01-27T12:23:54;4.70;;;3.10;;
21084;SDS011;72320;50.082;20.000;2024-01-27T12:26:23;2.60;;;2.40;;
21084;SDS011;72320;50.082;20.000;2024-01-27T12:28:49;5.00;;;2.80;;
21084;SDS011;72320;50.082;20.000;2024-01-27T12:31:18;3.60;;;2.70;;
21084;SDS011;72320;50.082;20.000;2024-01-27T12:36:19;2.50;;;2.10;;
21084;SDS011;72320;50.082;20.000;2024-01-27T12:38:52;4.80;;;2.30;;
21084;SDS011;72320;50.082;20.000;2024-01-27T12:41:19;4.10;;;2.90;;
21084;SDS011;72320;50.082;20.000;2024-01-27T12:43:45;8.30;;;3.00;;
21084;SDS011;72320;50.082;20.000;2024-01-27T12:46:10;5.70;;;2.80;;
21084;SDS011;72320;50.082;20.000;2024-01-27T12:48:37;4.10;;;2.80;;
21084;SDS011;72320;50.082;20.000;2024-01-27T12:51:04;4.70;;;2.80;;
21084;SDS011;72320;50.082;20.000;2024-01-27T12:53:29;3.10;;;2.60;;
21084;SDS011;72320;50.082;20.000;2024-01-27T12:55:55;3.00;;;2.40;;
21084;SDS011;72320;50.082;20.000;2024-01-27T12:58:21;3.20;;;2.80;;
21084;SDS011;72320;50.082;20.000;2024-01-27T13:00:46;3.00;;;2.40;;
21084;SDS011;72320;50.082;20.000;2024-01-27T13:03:12;4.40;;;2.70;;
21084;SDS011;72320;50.082;20.000;2024-01-27T13:05:37;2.50;;;2.40;;
21084;SDS011;72320;50.082;20.000;2024-01-27T13:08:03;2.80;;;2.40;;
21084;SDS011;72320;50.082;20.000;2024-01-27T13:10:30;3.70;;;3.00;;
21084;SDS011;72320;50.082;20.000;2024-01-27T13:12:55;3.00;;;2.80;;
21084;SDS011;72320;50.082;20.000;2024-01-27T13:15:21;3.80;;;2.70;;
21084;SDS011;72320;50.082;20.000;2024-01-27T13:17:48;7.00;;;2.80;;
21084;SDS011;72320;50.082;20.000;2024-01-27T13:20:14;3.20;;;2.90;;
21084;SDS011;72320;50.082;20.000;2024-01-27T13:22:39;3.40;;;3.10;;
21084;SDS011;72320;50.082;20.000;2024-01-27T13:25:05;5.50;;;3.00;;
21084;SDS011;72320;50.082;20.000;2024-01-27T13:27:31;5.60;;;3.00;;
21084;SDS011;72320;50.082;20.000;2024-01-27T13:29:56;2.70;;;2.50;;
21084;SDS011;72320;50.082;20.000;2024-01-27T13:32:21;2.90;;;2.60;;
21084;SDS011;72320;50.082;20.000;2024-01-27T13:34:47;4.40;;;3.10;;
21084;SDS011;72320;50.082;20.000;2024-01-27T13:37:12;4.00;;;3.50;;
21084;SDS011;72320;50.082;20.000;2024-01-27T13:39:41;4.70;;;3.00;;
21084;SDS011;72320;50.082;20.000;2024-01-27T13:42:06;3.30;;;3.00;;
21084;SDS011;72320;50.082;20.000;2024-01-27T13:44:32;3.00;;;2.70;;
21084;SDS011;72320;50.082;20.000;2024-01-27T13:47:01;4.50;;;3.10;;
21084;SDS011;72320;50.082;20.000;2024-01-27T13:49:27;6.40;;;3.10;;
21084;SDS011;72320;50.082;20.000;2024-01-27T13:51:52;8.30;;;3.30;;
21084;SDS011;72320;50.082;20.000;2024-01-27T13:54:18;4.30;;;2.70;;
21084;SDS011;72320;50.082;20.000;2024-01-27T13:56:43;4.50;;;3.30;;
21084;SDS011;72320;50.082;20.000;2024-01-27T13:59:10;6.00;;;3.60;;
21084;SDS011;72320;50.082;20.000;2024-01-27T14:01:36;5.50;;;2.70;;
21084;SDS011;72320;50.082;20.000;2024-01-27T14:04:01;3.50;;;2.90;;
21084;SDS011;72320;50.082;20.000;2024-01-27T14:06:27;3.00;;;2.70;;
21084;SDS011;72320;50.082;20.000;2024-01-27T14:08:52;5.60;;;3.20;;
21084;SDS011;72320;50.082;20.000;2024-01-27T14:11:18;4.60;;;3.10;;
21084;SDS011;72320;50.082;20.000;2024-01-27T14:13:44;5.30;;;3.30;;
21084;SDS011;72320;50.082;20.000;2024-01-27T14:16:09;7.00;;;2.80;;
21084;SDS011;72320;50.082;20.000;2024-01-27T14:18:34;7.00;;;3.80;;
21084;SDS011;72320;50.082;20.000;2024-01-27T14:21:00;5.00;;;3.10;;
21084;SDS011;72320;50.082;20.000;2024-01-27T14:23:25;4.30;;;3.10;;
21084;SDS011;72320;50.082;20.000;2024-01-27T14:25:51;2.80;;;2.60;;
21084;SDS011;72320;50.082;20.000;2024-01-27T14:28:17;4.70;;;2.50;;
21084;SDS011;72320;50.082;20.000;2024-01-27T14:30:42;6.20;;;3.30;;